sensor_id;sensor_type;location;lat;lon;timestamp;P1;durP1;ratioP1;P2;durP2;ratioP2
42036;SDS011;30340;52.004;5.908;2022-12-16T00:03:37;28.75;;;17.10;;
42036;SDS011;30340;52.004;5.908;2022-12-16T00:06:04;28.70;;;18.77;;
42036;SDS011;30340;52.004;5.908;2022-12-16T00:08:32;26.05;;;16.85;;
42036;SDS011;30340;52.004;5.908;2022-12-16T00:10:59;26.90;;;17.58;;
42036;SDS011;30340;52.004;5.908;2022-12-16T00:13:28;28.00;;;18.75;;
42036;SDS011;30340;52.004;5.908;2022-12-16T00:15:55;26.88;;;17.20;;
42036;SDS011;30340;52.004;5.908;2022-12-16T00:18:21;31.23;;;19.52;;
42036;SDS011;30340;52.004;5.908;2022-12-16T00:20:47;29.23;;;18.95;;
42036;SDS011;30340;52.004;5.908;2022-12-16T00:23:15;31.73;;;20.48;;
42036;SDS011;30340;52.004;5.908;2022-12-16T00:25:44;30.05;;;19.83;;
42036;SDS011;30340;52.004;5.908;2022-12-16T00:28:10;27.42;;;18.88;;
42036;SDS011;30340;52.004;5.908;2022-12-16T00:30:37;29.70;;;19.42;;
42036;SDS011;30340;52.004;5.908;2022-12-16T00:33:04;29.17;;;19.48;;
42036;SDS011;30340;52.004;5.908;2022-12-16T00:35:30;26.63;;;18.63;;
42036;SDS011;30340;52.004;5.908;2022-12-16T00:37:56;25.90;;;17.67;;
42036;SDS011;30340;52.004;5.908;2022-12-16T00:40:22;31.48;;;19.88;;
42036;SDS011;30340;52.004;5.908;2022-12-16T00:42:47;28.88;;;18.70;;
42036;SDS011;30340;52.004;5.908;2022-12-16T00:45:13;28.58;;;19.70;;
42036;SDS011;30340;52.004;5.908;2022-12-16T00:47:39;25.45;;;17.60;;
42036;SDS011;30340;52.004;5.908;2022-12-16T00:50:05;24.75;;;17.17;;
42036;SDS011;30340;52.004;5.908;2022-12-16T00:52:31;25.75;;;17.88;;
42036;SDS011;30340;52.004;5.908;2022-12-16T00:54:56;22.92;;;15.02;;
42036;SDS011;30340;52.004;5.908;2022-12-16T00:57:22;26.90;;;17.27;;
42036;SDS011;30340;52.004;5.908;2022-12-16T00:59:48;23.50;;;16.70;;
42036;SDS011;30340;52.004;5.908;2022-12-16T01:02:14;27.17;;;18.38;;
42036;SDS011;30340;52.004;5.908;2022-12-16T01:04:39;24.60;;;16.42;;
42036;SDS011;30340;52.004;5.908;2022-12-16T01:07:05;21.15;;;14.13;;
42036;SDS011;30340;52.004;5.908;2022-12-16T01:09:30;27.25;;;17.52;;
42036;SDS011;30340;52.004;5.908;2022-12-16T01:11:56;26.13;;;17.33;;
42036;SDS011;30340;52.004;5.908;2022-12-16T01:14:22;30.05;;;19.65;;
42036;SDS011;30340;52.004;5.908;2022-12-16T01:16:47;32.80;;;21.52;;
42036;SDS011;30340;52.004;5.908;2022-12-16T01:19:17;29.88;;;20.25;;
42036;SDS011;30340;52.004;5.908;2022-12-16T01:21:43;29.45;;;19.92;;
42036;SDS011;30340;52.004;5.908;2022-12-16T01:24:09;27.95;;;18.30;;
42036;SDS011;30340;52.004;5.908;2022-12-16T01:26:35;32.60;;;20.60;;
42036;SDS011;30340;52.004;5.908;2022-12-16T01:29:01;27.20;;;17.70;;
42036;SDS011;30340;52.004;5.908;2022-12-16T01:31:26;27.70;;;18.15;;
42036;SDS011;30340;52.004;5.908;2022-12-16T01:33:52;25.73;;;17.38;;
42036;SDS011;30340;52.004;5.908;2022-12-16T01:36:18;25.30;;;17.35;;
42036;SDS011;30340;52.004;5.908;2022-12-16T01:38:44;26.80;;;18.23;;
42036;SDS011;30340;52.004;5.908;2022-12-16T01:41:11;24.27;;;16.70;;
42036;SDS011;30340;52.004;5.908;2022-12-16T01:43:40;25.35;;;17.25;;
42036;SDS011;30340;52.004;5.908;2022-12-16T01:51:54;32.85;;;22.48;;
42036;SDS011;30340;52.004;5.908;2022-12-16T01:54:03;30.85;;;20.42;;
42036;SDS011;30340;52.004;5.908;2022-12-16T01:56:33;32.15;;;20.83;;
42036;SDS011;30340;52.004;5.908;2022-12-16T01:59:01;29.35;;;20.42;;
42036;SDS011;30340;52.004;5.908;2022-12-16T02:01:27;31.40;;;19.30;;
42036;SDS011;30340;52.004;5.908;2022-12-16T02:03:53;26.50;;;18.25;;
42036;SDS011;30340;52.004;5.908;2022-12-16T02:06:22;27.65;;;18.83;;
42036;SDS011;30340;52.004;5.908;2022-12-16T02:08:48;25.60;;;17.88;;
42036;SDS011;30340;52.004;5.908;2022-12-16T02:11:27;25.73;;;17.25;;
42036;SDS011;30340;52.004;5.908;2022-12-16T02:25:22;21.45;;;14.48;;
42036;SDS011;30340;52.004;5.908;2022-12-16T02:33:46;27.67;;;17.95;;
42036;SDS011;30340;52.004;5.908;2022-12-16T02:36:30;25.95;;;18.48;;
42036;SDS011;30340;52.004;5.908;2022-12-16T02:39:13;25.02;;;17.30;;
42036;SDS011;30340;52.004;5.908;2022-12-16T02:41:53;26.92;;;17.90;;
42036;SDS011;30340;52.004;5.908;2022-12-16T02:44:21;26.23;;;17.83;;
42036;SDS011;30340;52.004;5.908;2022-12-16T02:46:57;27.70;;;17.13;;
42036;SDS011;30340;52.004;5.908;2022-12-16T02:51:48;27.58;;;18.52;;
42036;SDS011;30340;52.004;5.908;2022-12-16T02:54:14;25.27;;;17.63;;
42036;SDS011;30340;52.004;5.908;2022-12-16T02:59:50;26.77;;;18.30;;
42036;SDS011;30340;52.004;5.908;2022-12-16T03:02:25;28.88;;;19.27;;
42036;SDS011;30340;52.004;5.908;2022-12-16T03:07:29;26.70;;;18.15;;
42036;SDS011;30340;52.004;5.908;2022-12-16T03:09:57;24.58;;;17.33;;
42036;SDS011;30340;52.004;5.908;2022-12-16T03:12:25;26.98;;;18.50;;
42036;SDS011;30340;52.004;5.908;2022-12-16T03:14:51;24.70;;;16.48;;
42036;SDS011;30340;52.004;5.908;2022-12-16T03:17:19;28.23;;;18.13;;
42036;SDS011;30340;52.004;5.908;2022-12-16T03:20:02;25.00;;;17.90;;
42036;SDS011;30340;52.004;5.908;2022-12-16T03:25:08;23.30;;;15.73;;
42036;SDS011;30340;52.004;5.908;2022-12-16T03:27:44;24.45;;;17.42;;
42036;SDS011;30340;52.004;5.908;2022-12-16T03:30:15;27.67;;;17.05;;
42036;SDS011;30340;52.004;5.908;2022-12-16T03:38:07;24.80;;;17.38;;
42036;SDS011;30340;52.004;5.908;2022-12-16T03:40:36;25.15;;;16.52;;
42036;SDS011;30340;52.004;5.908;2022-12-16T03:43:05;24.60;;;17.27;;
42036;SDS011;30340;52.004;5.908;2022-12-16T03:45:34;26.52;;;18.02;;
42036;SDS011;30340;52.004;5.908;2022-12-16T03:48:02;33.40;;;20.23;;
42036;SDS011;30340;52.004;5.908;2022-12-16T03:50:34;30.00;;;19.17;;
42036;SDS011;30340;52.004;5.908;2022-12-16T03:53:00;32.58;;;21.63;;
42036;SDS011;30340;52.004;5.908;2022-12-16T03:55:26;31.10;;;19.58;;
42036;SDS011;30340;52.004;5.908;2022-12-16T03:57:52;33.03;;;21.63;;
42036;SDS011;30340;52.004;5.908;2022-12-16T04:00:18;33.58;;;21.27;;
42036;SDS011;30340;52.004;5.908;2022-12-16T04:02:44;34.92;;;21.20;;
42036;SDS011;30340;52.004;5.908;2022-12-16T04:05:10;34.55;;;20.60;;
42036;SDS011;30340;52.004;5.908;2022-12-16T04:07:36;35.72;;;20.40;;
42036;SDS011;30340;52.004;5.908;2022-12-16T04:10:01;37.47;;;21.63;;
42036;SDS011;30340;52.004;5.908;2022-12-16T04:12:27;37.95;;;21.58;;
42036;SDS011;30340;52.004;5.908;2022-12-16T04:15:12;35.63;;;19.88;;
42036;SDS011;30340;52.004;5.908;2022-12-16T04:17:57;31.30;;;18.85;;
42036;SDS011;30340;52.004;5.908;2022-12-16T04:20:42;28.50;;;17.92;;
42036;SDS011;30340;52.004;5.908;2022-12-16T04:23:33;32.10;;;18.73;;
42036;SDS011;30340;52.004;5.908;2022-12-16T04:26:19;30.08;;;16.75;;
42036;SDS011;30340;52.004;5.908;2022-12-16T04:28:46;28.60;;;16.80;;
42036;SDS011;30340;52.004;5.908;2022-12-16T04:31:11;26.00;;;16.35;;
42036;SDS011;30340;52.004;5.908;2022-12-16T04:33:37;29.35;;;18.70;;
42036;SDS011;30340;52.004;5.908;2022-12-16T04:36:24;31.60;;;20.02;;
42036;SDS011;30340;52.004;5.908;2022-12-16T04:39:08;31.13;;;19.02;;
42036;SDS011;30340;52.004;5.908;2022-12-16T04:41:52;35.88;;;21.10;;
42036;SDS011;30340;52.004;5.908;2022-12-16T04:44:37;30.70;;;19.48;;
42036;SDS011;30340;52.004;5.908;2022-12-16T04:47:22;33.20;;;19.20;;
42036;SDS011;30340;52.004;5.908;2022-12-16T04:50:06;32.08;;;19.20;;
42036;SDS011;30340;52.004;5.908;2022-12-16T04:52:51;28.13;;;17.60;;
42036;SDS011;30340;52.004;5.908;2022-12-16T04:55:35;32.60;;;19.15;;
42036;SDS011;30340;52.004;5.908;2022-12-16T04:58:19;35.97;;;21.27;;
42036;SDS011;30340;52.004;5.908;2022-12-16T05:01:03;33.65;;;20.35;;
42036;SDS011;30340;52.004;5.908;2022-12-16T05:03:47;32.50;;;20.08;;
42036;SDS011;30340;52.004;5.908;2022-12-16T05:06:32;37.53;;;22.85;;
42036;SDS011;30340;52.004;5.908;2022-12-16T05:09:16;34.72;;;19.42;;
42036;SDS011;30340;52.004;5.908;2022-12-16T05:12:00;34.63;;;21.05;;
42036;SDS011;30340;52.004;5.908;2022-12-16T05:14:44;37.03;;;21.05;;
42036;SDS011;30340;52.004;5.908;2022-12-16T05:17:28;34.63;;;20.67;;
42036;SDS011;30340;52.004;5.908;2022-12-16T05:20:12;32.53;;;19.67;;
42036;SDS011;30340;52.004;5.908;2022-12-16T05:22:57;38.97;;;22.67;;
42036;SDS011;30340;52.004;5.908;2022-12-16T05:25:41;34.63;;;21.25;;
42036;SDS011;30340;52.004;5.908;2022-12-16T05:28:25;34.22;;;19.27;;
42036;SDS011;30340;52.004;5.908;2022-12-16T05:31:09;31.73;;;19.23;;
42036;SDS011;30340;52.004;5.908;2022-12-16T05:33:53;33.90;;;18.88;;
42036;SDS011;30340;52.004;5.908;2022-12-16T05:36:37;34.05;;;19.05;;
42036;SDS011;30340;52.004;5.908;2022-12-16T05:39:21;37.33;;;19.77;;
42036;SDS011;30340;52.004;5.908;2022-12-16T05:42:06;32.42;;;19.92;;
42036;SDS011;30340;52.004;5.908;2022-12-16T05:44:51;35.53;;;19.85;;
42036;SDS011;30340;52.004;5.908;2022-12-16T05:47:35;33.47;;;19.73;;
42036;SDS011;30340;52.004;5.908;2022-12-16T05:50:19;34.10;;;20.77;;
42036;SDS011;30340;52.004;5.908;2022-12-16T05:53:03;33.00;;;19.50;;
42036;SDS011;30340;52.004;5.908;2022-12-16T05:55:47;35.25;;;20.35;;
42036;SDS011;30340;52.004;5.908;2022-12-16T05:58:31;28.42;;;17.80;;
42036;SDS011;30340;52.004;5.908;2022-12-16T06:01:15;31.52;;;18.80;;
42036;SDS011;30340;52.004;5.908;2022-12-16T06:04:00;30.98;;;18.90;;
42036;SDS011;30340;52.004;5.908;2022-12-16T06:06:44;32.40;;;18.52;;
42036;SDS011;30340;52.004;5.908;2022-12-16T06:09:28;34.80;;;18.90;;
42036;SDS011;30340;52.004;5.908;2022-12-16T06:12:12;36.35;;;20.98;;
42036;SDS011;30340;52.004;5.908;2022-12-16T06:14:57;28.98;;;17.77;;
42036;SDS011;30340;52.004;5.908;2022-12-16T06:17:41;29.88;;;17.52;;
42036;SDS011;30340;52.004;5.908;2022-12-16T06:20:29;30.20;;;18.15;;
42036;SDS011;30340;52.004;5.908;2022-12-16T06:23:13;29.58;;;17.88;;
42036;SDS011;30340;52.004;5.908;2022-12-16T06:25:57;27.92;;;17.35;;
42036;SDS011;30340;52.004;5.908;2022-12-16T06:28:41;28.60;;;17.05;;
42036;SDS011;30340;52.004;5.908;2022-12-16T06:31:26;29.25;;;17.30;;
42036;SDS011;30340;52.004;5.908;2022-12-16T06:34:10;25.02;;;15.68;;
42036;SDS011;30340;52.004;5.908;2022-12-16T06:36:54;24.95;;;15.90;;
42036;SDS011;30340;52.004;5.908;2022-12-16T06:39:38;28.08;;;18.52;;
42036;SDS011;30340;52.004;5.908;2022-12-16T06:42:22;28.88;;;16.42;;
42036;SDS011;30340;52.004;5.908;2022-12-16T06:45:06;25.33;;;16.13;;
42036;SDS011;30340;52.004;5.908;2022-12-16T06:47:51;27.60;;;17.25;;
42036;SDS011;30340;52.004;5.908;2022-12-16T06:50:35;26.52;;;15.65;;
42036;SDS011;30340;52.004;5.908;2022-12-16T06:53:19;29.05;;;17.15;;
42036;SDS011;30340;52.004;5.908;2022-12-16T06:56:03;27.00;;;15.82;;
42036;SDS011;30340;52.004;5.908;2022-12-16T06:58:48;28.85;;;17.67;;
42036;SDS011;30340;52.004;5.908;2022-12-16T07:01:32;26.25;;;16.90;;
42036;SDS011;30340;52.004;5.908;2022-12-16T07:04:16;31.58;;;19.05;;
42036;SDS011;30340;52.004;5.908;2022-12-16T07:07:00;27.58;;;18.35;;
42036;SDS011;30340;52.004;5.908;2022-12-16T07:09:44;26.15;;;15.45;;
42036;SDS011;30340;52.004;5.908;2022-12-16T07:12:31;28.63;;;17.35;;
42036;SDS011;30340;52.004;5.908;2022-12-16T07:15:21;28.52;;;17.60;;
42036;SDS011;30340;52.004;5.908;2022-12-16T07:18:05;31.55;;;18.05;;
42036;SDS011;30340;52.004;5.908;2022-12-16T07:20:49;26.45;;;15.75;;
42036;SDS011;30340;52.004;5.908;2022-12-16T07:23:34;28.92;;;16.67;;
42036;SDS011;30340;52.004;5.908;2022-12-16T07:26:26;32.08;;;16.85;;
42036;SDS011;30340;52.004;5.908;2022-12-16T07:29:17;27.38;;;16.25;;
42036;SDS011;30340;52.004;5.908;2022-12-16T07:32:01;26.08;;;13.45;;
42036;SDS011;30340;52.004;5.908;2022-12-16T07:34:47;27.58;;;14.38;;
42036;SDS011;30340;52.004;5.908;2022-12-16T07:37:36;21.20;;;13.98;;
42036;SDS011;30340;52.004;5.908;2022-12-16T07:40:22;18.08;;;12.65;;
42036;SDS011;30340;52.004;5.908;2022-12-16T07:43:06;18.17;;;12.45;;
42036;SDS011;30340;52.004;5.908;2022-12-16T07:45:50;20.17;;;14.27;;
42036;SDS011;30340;52.004;5.908;2022-12-16T07:48:34;21.65;;;13.65;;
42036;SDS011;30340;52.004;5.908;2022-12-16T07:51:19;21.17;;;14.18;;
42036;SDS011;30340;52.004;5.908;2022-12-16T07:54:03;23.83;;;15.48;;
42036;SDS011;30340;52.004;5.908;2022-12-16T07:56:47;22.77;;;15.10;;
42036;SDS011;30340;52.004;5.908;2022-12-16T07:59:31;20.77;;;13.90;;
42036;SDS011;30340;52.004;5.908;2022-12-16T08:02:16;18.52;;;12.65;;
42036;SDS011;30340;52.004;5.908;2022-12-16T08:05:00;15.25;;;10.90;;
42036;SDS011;30340;52.004;5.908;2022-12-16T08:07:46;14.90;;;10.50;;
42036;SDS011;30340;52.004;5.908;2022-12-16T08:10:31;15.55;;;11.63;;
42036;SDS011;30340;52.004;5.908;2022-12-16T08:13:15;17.70;;;11.85;;
42036;SDS011;30340;52.004;5.908;2022-12-16T08:15:59;18.27;;;12.20;;
42036;SDS011;30340;52.004;5.908;2022-12-16T08:18:43;18.13;;;11.90;;
42036;SDS011;30340;52.004;5.908;2022-12-16T08:21:27;17.05;;;11.40;;
42036;SDS011;30340;52.004;5.908;2022-12-16T08:24:11;15.25;;;10.25;;
42036;SDS011;30340;52.004;5.908;2022-12-16T08:26:55;14.10;;;9.18;;
42036;SDS011;30340;52.004;5.908;2022-12-16T08:29:39;14.27;;;10.18;;
42036;SDS011;30340;52.004;5.908;2022-12-16T08:32:23;14.95;;;9.93;;
42036;SDS011;30340;52.004;5.908;2022-12-16T08:35:07;14.25;;;10.57;;
42036;SDS011;30340;52.004;5.908;2022-12-16T08:37:55;13.52;;;9.50;;
42036;SDS011;30340;52.004;5.908;2022-12-16T08:40:40;13.35;;;9.75;;
42036;SDS011;30340;52.004;5.908;2022-12-16T08:43:25;12.85;;;9.27;;
42036;SDS011;30340;52.004;5.908;2022-12-16T08:46:09;13.80;;;9.20;;
42036;SDS011;30340;52.004;5.908;2022-12-16T08:48:53;14.02;;;9.32;;
42036;SDS011;30340;52.004;5.908;2022-12-16T08:51:37;12.50;;;8.80;;
42036;SDS011;30340;52.004;5.908;2022-12-16T08:54:21;12.48;;;9.07;;
42036;SDS011;30340;52.004;5.908;2022-12-16T08:57:05;13.43;;;9.00;;
42036;SDS011;30340;52.004;5.908;2022-12-16T08:59:50;14.38;;;9.73;;
42036;SDS011;30340;52.004;5.908;2022-12-16T09:02:34;15.07;;;10.52;;
42036;SDS011;30340;52.004;5.908;2022-12-16T09:05:18;12.77;;;9.32;;
42036;SDS011;30340;52.004;5.908;2022-12-16T09:08:02;17.52;;;11.35;;
42036;SDS011;30340;52.004;5.908;2022-12-16T09:10:47;17.25;;;13.13;;
42036;SDS011;30340;52.004;5.908;2022-12-16T09:13:31;18.23;;;12.98;;
42036;SDS011;30340;52.004;5.908;2022-12-16T09:16:15;16.77;;;12.30;;
42036;SDS011;30340;52.004;5.908;2022-12-16T09:19:00;17.13;;;11.82;;
42036;SDS011;30340;52.004;5.908;2022-12-16T09:21:44;17.42;;;12.27;;
42036;SDS011;30340;52.004;5.908;2022-12-16T09:24:28;17.20;;;11.98;;
42036;SDS011;30340;52.004;5.908;2022-12-16T09:27:12;14.27;;;10.35;;
42036;SDS011;30340;52.004;5.908;2022-12-16T09:29:56;18.33;;;13.27;;
42036;SDS011;30340;52.004;5.908;2022-12-16T09:32:41;17.00;;;11.98;;
42036;SDS011;30340;52.004;5.908;2022-12-16T09:35:26;18.80;;;12.63;;
42036;SDS011;30340;52.004;5.908;2022-12-16T09:38:11;16.48;;;12.32;;
42036;SDS011;30340;52.004;5.908;2022-12-16T09:40:55;17.33;;;12.68;;
42036;SDS011;30340;52.004;5.908;2022-12-16T09:44:01;19.17;;;12.85;;
42036;SDS011;30340;52.004;5.908;2022-12-16T09:47:13;23.50;;;17.40;;
42036;SDS011;30340;52.004;5.908;2022-12-16T09:49:59;20.30;;;14.63;;
42036;SDS011;30340;52.004;5.908;2022-12-16T09:52:45;21.77;;;14.95;;
42036;SDS011;30340;52.004;5.908;2022-12-16T09:55:38;18.70;;;13.57;;
42036;SDS011;30340;52.004;5.908;2022-12-16T09:58:25;17.30;;;12.05;;
42036;SDS011;30340;52.004;5.908;2022-12-16T10:01:17;19.20;;;13.48;;
42036;SDS011;30340;52.004;5.908;2022-12-16T10:04:05;16.35;;;11.88;;
42036;SDS011;30340;52.004;5.908;2022-12-16T10:06:53;16.90;;;11.68;;
42036;SDS011;30340;52.004;5.908;2022-12-16T10:19:16;17.13;;;12.90;;
42036;SDS011;30340;52.004;5.908;2022-12-16T10:25:14;17.83;;;11.57;;
42036;SDS011;30340;52.004;5.908;2022-12-16T10:30:59;18.20;;;12.43;;
42036;SDS011;30340;52.004;5.908;2022-12-16T10:33:46;15.55;;;10.82;;
42036;SDS011;30340;52.004;5.908;2022-12-16T10:36:34;15.00;;;10.27;;
42036;SDS011;30340;52.004;5.908;2022-12-16T10:39:39;15.50;;;10.25;;
42036;SDS011;30340;52.004;5.908;2022-12-16T10:42:28;14.90;;;10.07;;
42036;SDS011;30340;52.004;5.908;2022-12-16T10:45:19;15.45;;;10.50;;
42036;SDS011;30340;52.004;5.908;2022-12-16T10:48:10;13.80;;;9.50;;
42036;SDS011;30340;52.004;5.908;2022-12-16T10:50:57;12.77;;;9.35;;
42036;SDS011;30340;52.004;5.908;2022-12-16T10:53:42;14.00;;;10.75;;
42036;SDS011;30340;52.004;5.908;2022-12-16T10:59:36;15.57;;;11.02;;
42036;SDS011;30340;52.004;5.908;2022-12-16T11:02:23;15.65;;;11.82;;
42036;SDS011;30340;52.004;5.908;2022-12-16T11:11:12;19.90;;;13.55;;
42036;SDS011;30340;52.004;5.908;2022-12-16T11:17:12;17.67;;;12.00;;
42036;SDS011;30340;52.004;5.908;2022-12-16T11:20:14;15.88;;;11.30;;
42036;SDS011;30340;52.004;5.908;2022-12-16T11:26:05;15.50;;;12.18;;
42036;SDS011;30340;52.004;5.908;2022-12-16T11:31:56;24.35;;;16.60;;
42036;SDS011;30340;52.004;5.908;2022-12-16T11:34:49;23.48;;;15.70;;
42036;SDS011;30340;52.004;5.908;2022-12-16T11:37:38;19.27;;;13.48;;
42036;SDS011;30340;52.004;5.908;2022-12-16T11:40:24;33.42;;;20.60;;
42036;SDS011;30340;52.004;5.908;2022-12-16T11:43:09;24.60;;;15.90;;
42036;SDS011;30340;52.004;5.908;2022-12-16T11:45:56;20.45;;;13.27;;
42036;SDS011;30340;52.004;5.908;2022-12-16T11:48:46;19.80;;;12.40;;
42036;SDS011;30340;52.004;5.908;2022-12-16T11:51:39;16.60;;;12.05;;
42036;SDS011;30340;52.004;5.908;2022-12-16T11:54:28;15.70;;;11.50;;
42036;SDS011;30340;52.004;5.908;2022-12-16T12:00:21;17.02;;;12.43;;
42036;SDS011;30340;52.004;5.908;2022-12-16T12:03:09;16.30;;;12.13;;
42036;SDS011;30340;52.004;5.908;2022-12-16T12:09:05;15.40;;;11.20;;
42036;SDS011;30340;52.004;5.908;2022-12-16T12:11:49;14.23;;;10.00;;
42036;SDS011;30340;52.004;5.908;2022-12-16T12:14:52;15.43;;;10.75;;
42036;SDS011;30340;52.004;5.908;2022-12-16T12:18:04;20.23;;;13.63;;
42036;SDS011;30340;52.004;5.908;2022-12-16T12:21:04;17.73;;;12.73;;
42036;SDS011;30340;52.004;5.908;2022-12-16T12:30:18;16.23;;;11.25;;
42036;SDS011;30340;52.004;5.908;2022-12-16T12:38:51;18.60;;;12.10;;
42036;SDS011;30340;52.004;5.908;2022-12-16T12:41:46;15.60;;;11.65;;
42036;SDS011;30340;52.004;5.908;2022-12-16T12:48:27;16.35;;;11.32;;
42036;SDS011;30340;52.004;5.908;2022-12-16T12:50:57;16.92;;;12.35;;
42036;SDS011;30340;52.004;5.908;2022-12-16T12:54:13;16.98;;;11.82;;
42036;SDS011;30340;52.004;5.908;2022-12-16T12:56:58;16.02;;;10.90;;
42036;SDS011;30340;52.004;5.908;2022-12-16T12:59:58;20.85;;;12.63;;
42036;SDS011;30340;52.004;5.908;2022-12-16T13:02:49;17.95;;;12.18;;
42036;SDS011;30340;52.004;5.908;2022-12-16T13:05:46;16.55;;;11.82;;
42036;SDS011;30340;52.004;5.908;2022-12-16T13:08:54;15.63;;;12.00;;
42036;SDS011;30340;52.004;5.908;2022-12-16T13:12:18;18.42;;;12.55;;
42036;SDS011;30340;52.004;5.908;2022-12-16T13:20:39;17.58;;;12.60;;
42036;SDS011;30340;52.004;5.908;2022-12-16T13:26:10;16.25;;;12.02;;
42036;SDS011;30340;52.004;5.908;2022-12-16T13:29:05;18.73;;;12.18;;
42036;SDS011;30340;52.004;5.908;2022-12-16T13:32:01;18.52;;;12.10;;
42036;SDS011;30340;52.004;5.908;2022-12-16T13:34:59;18.80;;;12.48;;
42036;SDS011;30340;52.004;5.908;2022-12-16T13:37:55;18.95;;;12.73;;
42036;SDS011;30340;52.004;5.908;2022-12-16T13:40:52;20.88;;;13.60;;
42036;SDS011;30340;52.004;5.908;2022-12-16T13:58:41;21.63;;;14.75;;
42036;SDS011;30340;52.004;5.908;2022-12-16T14:01:33;21.25;;;14.07;;
42036;SDS011;30340;52.004;5.908;2022-12-16T14:04:25;18.27;;;12.60;;
42036;SDS011;30340;52.004;5.908;2022-12-16T14:07:12;22.55;;;15.75;;
42036;SDS011;30340;52.004;5.908;2022-12-16T14:09:59;19.95;;;14.77;;
42036;SDS011;30340;52.004;5.908;2022-12-16T14:12:55;23.02;;;15.27;;
42036;SDS011;30340;52.004;5.908;2022-12-16T14:15:58;23.23;;;15.68;;
42036;SDS011;30340;52.004;5.908;2022-12-16T14:22:07;22.13;;;14.93;;
42036;SDS011;30340;52.004;5.908;2022-12-16T14:25:01;20.77;;;13.23;;
42036;SDS011;30340;52.004;5.908;2022-12-16T14:27:50;19.48;;;13.48;;
42036;SDS011;30340;52.004;5.908;2022-12-16T14:30:34;25.17;;;15.15;;
42036;SDS011;30340;52.004;5.908;2022-12-16T14:33:24;24.77;;;16.27;;
42036;SDS011;30340;52.004;5.908;2022-12-16T14:39:09;22.35;;;15.45;;
42036;SDS011;30340;52.004;5.908;2022-12-16T14:42:17;27.33;;;18.45;;
42036;SDS011;30340;52.004;5.908;2022-12-16T14:48:29;27.20;;;17.17;;
42036;SDS011;30340;52.004;5.908;2022-12-16T14:51:22;22.98;;;14.85;;
42036;SDS011;30340;52.004;5.908;2022-12-16T14:54:20;22.42;;;14.23;;
42036;SDS011;30340;52.004;5.908;2022-12-16T14:57:09;25.48;;;15.50;;
42036;SDS011;30340;52.004;5.908;2022-12-16T15:02:53;25.27;;;16.02;;
42036;SDS011;30340;52.004;5.908;2022-12-16T15:05:57;29.05;;;18.08;;
42036;SDS011;30340;52.004;5.908;2022-12-16T15:09:00;25.58;;;15.77;;
42036;SDS011;30340;52.004;5.908;2022-12-16T15:11:47;28.05;;;16.85;;
42036;SDS011;30340;52.004;5.908;2022-12-16T15:14:34;23.75;;;14.70;;
42036;SDS011;30340;52.004;5.908;2022-12-16T15:31:34;21.75;;;14.52;;
42036;SDS011;30340;52.004;5.908;2022-12-16T15:37:40;25.13;;;15.70;;
42036;SDS011;30340;52.004;5.908;2022-12-16T15:40:26;24.50;;;16.23;;
42036;SDS011;30340;52.004;5.908;2022-12-16T15:43:27;27.25;;;17.23;;
42036;SDS011;30340;52.004;5.908;2022-12-16T15:46:26;24.70;;;15.48;;
42036;SDS011;30340;52.004;5.908;2022-12-16T15:49:16;31.60;;;19.42;;
42036;SDS011;30340;52.004;5.908;2022-12-16T15:58:26;28.95;;;16.45;;
42036;SDS011;30340;52.004;5.908;2022-12-16T16:01:14;34.90;;;19.27;;
42036;SDS011;30340;52.004;5.908;2022-12-16T16:04:03;35.13;;;21.60;;
42036;SDS011;30340;52.004;5.908;2022-12-16T16:07:12;36.40;;;19.83;;
42036;SDS011;30340;52.004;5.908;2022-12-16T16:10:18;36.15;;;20.45;;
42036;SDS011;30340;52.004;5.908;2022-12-16T16:13:04;34.13;;;19.65;;
42036;SDS011;30340;52.004;5.908;2022-12-16T16:15:48;36.20;;;19.52;;
42036;SDS011;30340;52.004;5.908;2022-12-16T16:18:33;32.97;;;18.73;;
42036;SDS011;30340;52.004;5.908;2022-12-16T16:21:37;38.88;;;18.90;;
42036;SDS011;30340;52.004;5.908;2022-12-16T16:24:38;41.22;;;19.08;;
42036;SDS011;30340;52.004;5.908;2022-12-16T16:27:22;37.55;;;19.67;;
42036;SDS011;30340;52.004;5.908;2022-12-16T16:30:08;41.83;;;19.60;;
42036;SDS011;30340;52.004;5.908;2022-12-16T16:32:53;38.05;;;21.42;;
42036;SDS011;30340;52.004;5.908;2022-12-16T16:35:39;42.13;;;21.90;;
42036;SDS011;30340;52.004;5.908;2022-12-16T16:38:23;44.50;;;24.40;;
42036;SDS011;30340;52.004;5.908;2022-12-16T16:41:11;38.78;;;19.67;;
42036;SDS011;30340;52.004;5.908;2022-12-16T16:43:57;41.72;;;21.17;;
42036;SDS011;30340;52.004;5.908;2022-12-16T16:46:41;43.75;;;21.30;;
42036;SDS011;30340;52.004;5.908;2022-12-16T16:49:42;44.03;;;20.15;;
42036;SDS011;30340;52.004;5.908;2022-12-16T16:52:28;42.13;;;20.30;;
42036;SDS011;30340;52.004;5.908;2022-12-16T16:55:17;47.83;;;20.75;;
42036;SDS011;30340;52.004;5.908;2022-12-16T16:58:19;50.25;;;20.20;;
42036;SDS011;30340;52.004;5.908;2022-12-16T17:01:10;52.08;;;21.67;;
42036;SDS011;30340;52.004;5.908;2022-12-16T17:03:56;57.17;;;22.02;;
42036;SDS011;30340;52.004;5.908;2022-12-16T17:06:40;40.85;;;20.80;;
42036;SDS011;30340;52.004;5.908;2022-12-16T17:09:24;43.13;;;21.40;;
42036;SDS011;30340;52.004;5.908;2022-12-16T17:12:22;45.40;;;22.17;;
42036;SDS011;30340;52.004;5.908;2022-12-16T17:18:06;35.47;;;17.50;;
42036;SDS011;30340;52.004;5.908;2022-12-16T17:20:51;46.17;;;19.50;;
42036;SDS011;30340;52.004;5.908;2022-12-16T17:23:36;43.35;;;19.65;;
42036;SDS011;30340;52.004;5.908;2022-12-16T17:26:20;36.78;;;18.48;;
42036;SDS011;30340;52.004;5.908;2022-12-16T17:29:04;54.70;;;22.00;;
42036;SDS011;30340;52.004;5.908;2022-12-16T17:31:49;37.83;;;18.75;;
42036;SDS011;30340;52.004;5.908;2022-12-16T17:34:33;64.20;;;29.13;;
42036;SDS011;30340;52.004;5.908;2022-12-16T17:37:17;48.50;;;23.88;;
42036;SDS011;30340;52.004;5.908;2022-12-16T17:40:01;50.72;;;21.88;;
42036;SDS011;30340;52.004;5.908;2022-12-16T17:42:45;47.88;;;21.88;;
42036;SDS011;30340;52.004;5.908;2022-12-16T17:45:36;49.63;;;21.20;;
42036;SDS011;30340;52.004;5.908;2022-12-16T17:48:21;47.45;;;21.33;;
42036;SDS011;30340;52.004;5.908;2022-12-16T17:51:25;44.83;;;20.60;;
42036;SDS011;30340;52.004;5.908;2022-12-16T17:54:09;71.07;;;25.27;;
42036;SDS011;30340;52.004;5.908;2022-12-16T17:56:53;40.97;;;20.58;;
42036;SDS011;30340;52.004;5.908;2022-12-16T17:59:37;45.92;;;22.77;;
42036;SDS011;30340;52.004;5.908;2022-12-16T18:02:21;41.10;;;21.70;;
42036;SDS011;30340;52.004;5.908;2022-12-16T18:05:05;57.70;;;27.48;;
42036;SDS011;30340;52.004;5.908;2022-12-16T18:07:50;50.72;;;26.38;;
42036;SDS011;30340;52.004;5.908;2022-12-16T18:10:34;58.95;;;25.80;;
42036;SDS011;30340;52.004;5.908;2022-12-16T18:13:18;49.15;;;23.55;;
42036;SDS011;30340;52.004;5.908;2022-12-16T18:16:02;56.00;;;26.73;;
42036;SDS011;30340;52.004;5.908;2022-12-16T18:18:49;51.20;;;25.95;;
42036;SDS011;30340;52.004;5.908;2022-12-16T18:21:33;47.38;;;25.45;;
42036;SDS011;30340;52.004;5.908;2022-12-16T18:24:17;48.85;;;22.67;;
42036;SDS011;30340;52.004;5.908;2022-12-16T18:27:01;46.58;;;22.52;;
42036;SDS011;30340;52.004;5.908;2022-12-16T18:29:45;45.15;;;21.08;;
42036;SDS011;30340;52.004;5.908;2022-12-16T18:32:29;71.97;;;24.45;;